createdAt,value
2019-01-03T00:00:01.425Z,103894.59
2019-01-03T00:01:02.078Z,103894.81
2019-01-03T00:02:03.843Z,103894.41
2019-01-03T00:03:04.728Z,103894.41
2019-01-03T00:04:05.743Z,103894.81
2019-01-03T00:05:05.710Z,103894.48
2019-01-03T00:06:07.585Z,103894.16
2019-01-03T00:07:06.726Z,103893.70
2019-01-03T00:08:07.282Z,103893.42
2019-01-03T00:09:11.293Z,103893.41
2019-01-03T00:10:08.604Z,103893.47
2019-01-03T00:11:10.217Z,103893.38
2019-01-03T00:12:10.849Z,103893.36
2019-01-03T00:13:11.370Z,103893.25
2019-01-03T00:14:11.897Z,103893.75
2019-01-03T00:15:12.527Z,103893.41
2019-01-03T00:16:13.105Z,103893.80
2019-01-03T00:17:13.614Z,103893.53
2019-01-03T00:18:14.058Z,103893.92
2019-01-03T00:19:14.610Z,103894.09
2019-01-03T00:20:15.451Z,103894.26
2019-01-03T00:21:16.229Z,103893.92
2019-01-03T00:22:16.879Z,103894.20
2019-01-03T00:23:17.631Z,103894.41
2019-01-03T00:24:18.292Z,103894.57
2019-01-03T00:25:18.911Z,103894.73
2019-01-03T00:26:19.577Z,103895.23
2019-01-03T00:27:20.233Z,103895.73
2019-01-03T00:28:20.918Z,103895.90
2019-01-03T00:29:21.511Z,103895.56
2019-01-03T00:30:22.417Z,103895.41
2019-01-03T00:31:24.855Z,103894.80
2019-01-03T00:32:23.481Z,103894.86
2019-01-03T00:33:24.395Z,103894.84
2019-01-03T00:34:24.261Z,103894.47
2019-01-03T00:35:24.296Z,103894.47
2019-01-03T00:36:25.430Z,103894.13
2019-01-03T00:37:26.163Z,103893.66
2019-01-03T00:38:26.856Z,103893.38
2019-01-03T00:39:27.495Z,103892.66
2019-01-03T00:40:28.149Z,103892.93
2019-01-03T00:41:28.743Z,103893.30
2019-01-03T00:42:29.358Z,103893.04
2019-01-03T00:43:30.031Z,103893.48
2019-01-03T00:44:29.896Z,103894.09
2019-01-03T00:45:31.535Z,103894.41
2019-01-03T00:46:32.314Z,103894.84
2019-01-03T00:47:41.522Z,103901.58
2019-01-03T00:48:42.149Z,103900.97
2019-01-03T00:49:43.976Z,103901.03
2019-01-03T00:50:44.473Z,103901.53
2019-01-03T00:51:45.122Z,103901.53
2019-01-03T00:52:45.230Z,103901.53
2019-01-03T00:53:45.758Z,103901.20
2019-01-03T00:54:46.419Z,103901.31
2019-01-03T00:55:46.964Z,103900.91
2019-01-03T00:56:47.825Z,103900.32
2019-01-03T00:57:48.491Z,103900.09
2019-01-03T00:58:49.461Z,103900.20
2019-01-03T00:59:49.171Z,103899.38
2019-01-03T01:00:50.880Z,103899.22
2019-01-03T01:01:51.821Z,103898.98
2019-01-03T01:02:52.556Z,103899.42
2019-01-03T01:03:53.042Z,103899.42
2019-01-03T01:04:53.532Z,103899.76
2019-01-03T01:05:54.547Z,103900.09
2019-01-03T01:06:54.061Z,103900.42
2019-01-03T01:07:54.638Z,103900.31
2019-01-03T01:08:55.330Z,103901.20
2019-01-03T01:09:56.154Z,103901.63
2019-01-03T01:10:56.312Z,103902.19
2019-01-03T01:11:56.825Z,103902.31
2019-01-03T01:12:57.438Z,103903.31
2019-01-03T01:13:57.948Z,103903.73
2019-01-03T01:14:58.668Z,103904.39
2019-01-03T01:15:59.420Z,103905.12
2019-01-03T01:17:00.302Z,103906.11
2019-01-03T01:18:00.867Z,103906.78
2019-01-03T01:19:01.832Z,103907.11
2019-01-03T01:20:02.758Z,103907.94
2019-01-03T01:21:03.315Z,103908.27
2019-01-03T01:22:03.812Z,103908.44
2019-01-03T01:23:04.387Z,103908.72
2019-01-03T01:24:05.379Z,103909.31
2019-01-03T01:25:05.395Z,103910.64
2019-01-03T01:26:06.137Z,103911.54
2019-01-03T01:27:07.734Z,103912.38
2019-01-03T01:28:07.279Z,103913.47
2019-01-03T01:29:07.851Z,103914.30
2019-01-03T01:30:08.644Z,103915.80
2019-01-03T01:31:09.251Z,103917.02
2019-01-03T01:32:09.924Z,103918.10
2019-01-03T01:33:10.457Z,103919.38
2019-01-03T01:33:32.698Z,103943.34
2019-01-03T01:34:32.470Z,103942.58
2019-01-03T01:35:32.956Z,103942.68
2019-01-03T01:36:33.711Z,103942.35
2019-01-03T01:37:35.470Z,103942.02
2019-01-03T01:38:36.069Z,103941.92
2019-01-03T01:39:36.281Z,103941.37
2019-01-03T01:40:37.181Z,103941.48
2019-01-03T01:41:37.737Z,103941.53
2019-01-03T01:42:38.391Z,103941.37
2019-01-03T01:43:38.358Z,103941.66
2019-01-03T01:44:39.208Z,103941.64
2019-01-03T01:45:39.831Z,103942.32
2019-01-03T01:46:39.424Z,103942.22
2019-01-03T01:47:41.004Z,103941.94
2019-01-03T01:48:44.055Z,103941.77
2019-01-03T01:49:40.783Z,103941.50
2019-01-03T01:50:42.282Z,103941.44
2019-01-03T01:51:42.814Z,103941.11
2019-01-03T01:52:42.478Z,103940.27
2019-01-03T01:53:46.378Z,103940.66
2019-01-03T01:54:43.921Z,103941.02
2019-01-03T01:55:47.948Z,103940.73
2019-01-03T01:56:45.066Z,103941.17
2019-01-03T01:57:46.596Z,103941.79
2019-01-03T01:58:47.282Z,103942.41
2019-01-03T01:59:47.780Z,103943.22
2019-01-03T02:00:48.391Z,103943.50
2019-01-03T02:01:48.943Z,103944.38
2019-01-03T02:02:49.548Z,103944.77
2019-01-03T02:03:50.080Z,103945.32
2019-01-03T02:04:50.741Z,103945.70
2019-01-03T02:05:51.340Z,103946.50
2019-01-03T02:06:51.989Z,103946.78
2019-01-03T02:07:52.573Z,103947.09
2019-01-03T02:08:53.218Z,103948.97
2019-01-03T02:09:53.723Z,103950.19
2019-01-03T02:10:54.331Z,103951.47
2019-01-03T02:11:54.967Z,103952.19
2019-01-03T02:12:55.567Z,103952.23
2019-01-03T02:13:55.785Z,103952.37
2019-01-03T02:14:56.569Z,103952.09
2019-01-03T02:15:56.641Z,103952.97
2019-01-03T02:16:57.197Z,103953.30
2019-01-03T02:17:57.729Z,103953.52
2019-01-03T02:18:58.393Z,103953.81
2019-01-03T02:19:58.004Z,103954.30
2019-01-03T02:20:59.763Z,103954.36
2019-01-03T02:22:00.244Z,103954.58
2019-01-03T02:23:00.698Z,103954.97
2019-01-03T02:24:01.309Z,103955.75
2019-01-03T02:24:11.241Z,103967.66
2019-01-03T02:25:12.650Z,103967.41
2019-01-03T02:26:13.152Z,103966.42
2019-01-03T02:27:13.640Z,103966.25
2019-01-03T02:28:14.572Z,103965.98
2019-01-03T02:29:15.121Z,103965.93
2019-01-03T02:30:15.781Z,103965.81
2019-01-03T02:31:15.284Z,103965.16
2019-01-03T02:32:17.025Z,103964.27
2019-01-03T02:33:16.671Z,103963.16
2019-01-03T02:34:18.310Z,103962.37
2019-01-03T02:35:18.993Z,103961.33
2019-01-03T02:36:19.529Z,103960.45
2019-01-03T02:37:19.947Z,103959.73
2019-01-03T02:38:20.493Z,103959.12
2019-01-03T02:39:21.075Z,103958.30
2019-01-03T02:40:21.694Z,103957.67
2019-01-03T02:41:22.233Z,103957.35
2019-01-03T02:42:22.765Z,103956.46
2019-01-03T02:43:23.307Z,103955.23
2019-01-03T02:44:24.050Z,103954.42
2019-01-03T02:45:24.520Z,103953.36
2019-01-03T02:46:25.011Z,103952.20
2019-01-03T02:47:25.584Z,103950.82
2019-01-03T02:48:26.128Z,103949.43
2019-01-03T02:49:26.793Z,103947.94
2019-01-03T02:50:27.291Z,103946.52
2019-01-03T02:51:27.951Z,103944.45
2019-01-03T02:52:28.557Z,103943.07
2019-01-03T02:53:29.249Z,103941.25
2019-01-03T02:54:30.227Z,103940.02
2019-01-03T02:55:31.096Z,103938.03
2019-01-03T02:56:31.672Z,103937.38
2019-01-03T02:57:32.444Z,103935.55
2019-01-03T02:58:33.063Z,103933.62
2019-01-03T02:59:33.619Z,103931.80
2019-01-03T03:00:34.007Z,103930.47
2019-01-03T03:01:34.928Z,103928.80
2019-01-03T03:02:35.599Z,103926.77
2019-01-03T03:03:36.213Z,103925.53
2019-01-03T03:04:36.735Z,103923.49
2019-01-03T03:05:37.249Z,103922.22
2019-01-03T03:06:37.998Z,103921.21
2019-01-03T03:07:38.742Z,103920.34
2019-01-03T03:08:39.448Z,103919.67
2019-01-03T03:09:40.188Z,103918.50
2019-01-03T03:09:50.304Z,103900.05
2019-01-03T03:10:50.759Z,103899.81
2019-01-03T03:11:51.188Z,103900.15
2019-01-03T03:12:52.167Z,103900.36
2019-01-03T03:13:52.724Z,103900.37
2019-01-03T03:14:53.356Z,103899.97
2019-01-03T03:15:53.915Z,103899.71
2019-01-03T03:16:54.660Z,103900.52
2019-01-03T03:17:55.558Z,103900.70
2019-01-03T03:18:56.115Z,103900.64
2019-01-03T03:19:56.906Z,103900.93
2019-01-03T03:20:57.439Z,103900.74
2019-01-03T03:21:58.217Z,103900.19
2019-01-03T03:22:59.054Z,103900.41
2019-01-03T03:23:59.779Z,103899.86
2019-01-03T03:25:00.555Z,103899.08
2019-01-03T03:26:00.049Z,103897.64
2019-01-03T03:27:01.757Z,103895.97
2019-01-03T03:28:02.289Z,103894.66
2019-01-03T03:29:03.050Z,103893.49
2019-01-03T03:30:03.578Z,103892.38
2019-01-03T03:31:04.200Z,103890.93
2019-01-03T03:32:04.694Z,103890.28
2019-01-03T03:33:05.235Z,103888.61
2019-01-03T03:34:05.721Z,103887.39
2019-01-03T03:35:05.232Z,103886.00
2019-01-03T03:36:07.154Z,103885.18
2019-01-03T03:37:07.789Z,103883.89
2019-01-03T03:38:08.327Z,103882.30
2019-01-03T03:39:07.956Z,103880.85
2019-01-03T03:40:09.591Z,103879.09
2019-01-03T03:41:11.488Z,103877.64
2019-01-03T03:42:09.815Z,103875.83
2019-01-03T03:43:11.226Z,103873.77
2019-01-03T03:44:11.690Z,103872.38
2019-01-03T03:45:12.371Z,103870.55
2019-01-03T03:46:12.825Z,103869.08
2019-01-03T03:47:12.513Z,103867.41
2019-01-03T03:48:13.990Z,103865.75
2019-01-03T03:49:14.564Z,103864.20
2019-01-03T03:50:15.051Z,103861.70
2019-01-03T03:51:15.527Z,103860.05
2019-01-03T03:52:16.040Z,103859.05
2019-01-03T03:53:16.563Z,103858.88
2019-01-03T03:54:17.105Z,103858.32
2019-01-03T03:55:17.755Z,103858.39
2019-01-03T03:56:18.217Z,103857.83
2019-01-03T03:57:18.922Z,103857.27
2019-01-03T03:58:18.403Z,103856.55
2019-01-03T03:58:27.300Z,103843.92
2019-01-03T03:59:28.133Z,103843.82
2019-01-03T04:00:28.631Z,103843.66
2019-01-03T04:01:29.151Z,103843.98
2019-01-03T04:02:29.945Z,103844.59
2019-01-03T04:03:30.623Z,103844.42
2019-01-03T04:04:31.144Z,103845.42
2019-01-03T04:05:31.630Z,103846.30
2019-01-03T04:06:32.310Z,103846.97
2019-01-03T04:07:32.851Z,103847.84
2019-01-03T04:08:33.236Z,103848.72
2019-01-03T04:09:33.886Z,103849.83
2019-01-03T04:10:34.593Z,103850.88
2019-01-03T04:11:35.039Z,103852.09
2019-01-03T04:12:35.525Z,103853.54
2019-01-03T04:13:36.158Z,103854.35
2019-01-03T04:14:36.816Z,103855.45
2019-01-03T04:15:37.672Z,103856.51
2019-01-03T04:16:38.188Z,103857.39
2019-01-03T04:17:38.619Z,103858.44
2019-01-03T04:18:39.020Z,103859.22
2019-01-03T04:19:39.597Z,103860.04
2019-01-03T04:20:40.257Z,103860.69
2019-01-03T04:21:40.754Z,103860.48
2019-01-03T04:22:41.276Z,103860.64
2019-01-03T04:23:41.731Z,103860.30
2019-01-03T04:24:42.400Z,103859.95
2019-01-03T04:25:42.832Z,103860.11
2019-01-03T04:26:43.319Z,103859.61
2019-01-03T04:27:43.728Z,103859.01
2019-01-03T04:28:44.168Z,103858.16
2019-01-03T04:29:44.690Z,103857.81
2019-01-03T04:30:45.233Z,103857.37
2019-01-03T04:31:45.707Z,103857.60
2019-01-03T04:32:46.245Z,103857.26
2019-01-03T04:33:46.716Z,103857.25
2019-01-03T04:34:47.225Z,103857.45
2019-01-03T04:35:47.888Z,103857.58
2019-01-03T04:36:48.340Z,103857.13
2019-01-03T04:37:48.859Z,103857.28
2019-01-03T04:38:49.415Z,103856.67
2019-01-03T04:39:49.958Z,103856.39
2019-01-03T04:40:50.780Z,103855.88
2019-01-03T04:41:51.620Z,103854.72
2019-01-03T04:42:00.536Z,103852.99
2019-01-03T04:43:01.438Z,103852.22
2019-01-03T04:44:01.963Z,103852.33
2019-01-03T04:45:02.555Z,103852.22
2019-01-03T04:46:02.970Z,103851.89
2019-01-03T04:47:03.424Z,103851.56
2019-01-03T04:48:04.023Z,103851.06
2019-01-03T04:49:04.438Z,103850.66
2019-01-03T04:50:04.768Z,103850.54
2019-01-03T04:51:05.261Z,103850.72
2019-01-03T04:52:05.682Z,103850.89
2019-01-03T04:53:06.194Z,103851.16
2019-01-03T04:54:06.742Z,103851.16
2019-01-03T04:55:07.377Z,103850.56
2019-01-03T04:56:07.832Z,103850.39
2019-01-03T04:57:08.518Z,103848.98
2019-01-03T04:58:09.388Z,103848.66
2019-01-03T04:59:10.132Z,103848.56
2019-01-03T05:00:10.687Z,103848.00
2019-01-03T05:01:11.118Z,103847.00
2019-01-03T05:02:11.692Z,103846.50
2019-01-03T05:03:12.240Z,103846.17
2019-01-03T05:04:13.748Z,103846.00
2019-01-03T05:05:14.675Z,103845.50
2019-01-03T05:06:14.335Z,103845.01
2019-01-03T05:07:14.931Z,103844.51
2019-01-03T05:08:15.419Z,103844.72
2019-01-03T05:09:15.926Z,103844.29
2019-01-03T05:10:16.467Z,103844.22
2019-01-03T05:11:17.289Z,103844.27
2019-01-03T05:12:17.837Z,103843.67
2019-01-03T05:13:18.448Z,103843.22
2019-01-03T05:14:17.904Z,103842.99
2019-01-03T05:15:19.416Z,103842.11
2019-01-03T05:16:19.979Z,103841.81
2019-01-03T05:17:20.447Z,103841.82
2019-01-03T05:18:20.950Z,103841.44
2019-01-03T05:19:21.453Z,103841.48
2019-01-03T05:20:22.101Z,103841.52
2019-01-03T05:21:23.052Z,103841.80
2019-01-03T05:22:23.744Z,103842.41
2019-01-03T05:23:24.716Z,103842.45
2019-01-03T05:24:25.570Z,103843.22
2019-01-03T05:25:27.122Z,103843.40
2019-01-03T05:26:26.819Z,103843.27
2019-01-03T05:27:27.449Z,103843.45
2019-01-03T05:27:36.349Z,103836.91
2019-01-03T05:28:37.091Z,103837.07
2019-01-03T05:29:37.528Z,103836.74
2019-01-03T05:30:38.096Z,103836.34
2019-01-03T05:31:38.532Z,103836.28
2019-01-03T05:32:39.079Z,103836.39
2019-01-03T05:33:39.580Z,103836.29
2019-01-03T05:34:39.990Z,103836.73
2019-01-03T05:35:40.647Z,103836.39
2019-01-03T05:36:41.556Z,103836.93
2019-01-03T05:37:42.484Z,103836.60
2019-01-03T05:38:43.005Z,103837.00
2019-01-03T05:39:43.628Z,103837.66
2019-01-03T05:40:44.291Z,103837.83
2019-01-03T05:41:44.104Z,103838.66
2019-01-03T05:42:44.897Z,103838.66
2019-01-03T05:43:46.382Z,103839.48
2019-01-03T05:44:47.038Z,103839.55
2019-01-03T05:45:47.719Z,103840.17
2019-01-03T05:46:47.727Z,103840.40
2019-01-03T05:47:48.315Z,103840.39
2019-01-03T05:48:48.868Z,103840.13
2019-01-03T05:49:49.434Z,103840.22
2019-01-03T05:50:50.304Z,103840.22
2019-01-03T05:51:50.901Z,103840.33
2019-01-03T05:52:51.437Z,103840.50
2019-01-03T05:53:51.916Z,103840.39
2019-01-03T05:54:52.411Z,103840.13
2019-01-03T05:55:53.052Z,103840.45
2019-01-03T05:56:53.626Z,103840.55
2019-01-03T05:57:54.117Z,103840.22
2019-01-03T05:58:54.606Z,103839.55
2019-01-03T05:59:55.091Z,103839.06
2019-01-03T06:00:55.776Z,103838.41
2019-01-03T06:01:56.357Z,103837.84
2019-01-03T06:02:55.877Z,103837.67
2019-01-03T06:03:57.378Z,103837.88
2019-01-03T06:04:57.990Z,103837.78
2019-01-03T06:05:58.556Z,103837.55
2019-01-03T06:06:59.111Z,103837.89
2019-01-03T06:07:59.655Z,103838.49
2019-01-03T06:09:00.208Z,103838.92
2019-01-03T06:10:00.830Z,103839.50
2019-01-03T06:11:01.486Z,103840.00
2019-01-03T06:12:02.117Z,103840.16
2019-01-03T06:13:02.594Z,103841.42
2019-01-03T06:14:03.072Z,103842.16
2019-01-03T06:15:03.820Z,103842.58
2019-01-03T06:15:17.942Z,103862.98
2019-01-03T06:16:19.325Z,103862.58
2019-01-03T06:17:19.812Z,103862.58
2019-01-03T06:18:20.096Z,103862.48
2019-01-03T06:19:20.731Z,103862.81
2019-01-03T06:20:21.288Z,103862.48
2019-01-03T06:21:21.979Z,103862.48
2019-01-03T06:22:22.441Z,103862.31
2019-01-03T06:23:23.250Z,103861.65
2019-01-03T06:24:24.058Z,103861.59
2019-01-03T06:25:24.666Z,103860.92
2019-01-03T06:26:25.155Z,103860.09
2019-01-03T06:27:25.616Z,103859.42
2019-01-03T06:28:26.195Z,103859.32
2019-01-03T06:29:26.794Z,103859.38
2019-01-03T06:30:26.190Z,103858.55
2019-01-03T06:31:27.705Z,103858.22
2019-01-03T06:32:28.425Z,103857.55
2019-01-03T06:33:29.278Z,103857.39
2019-01-03T06:34:29.821Z,103857.22
2019-01-03T06:35:30.396Z,103856.95
2019-01-03T06:36:36.086Z,103856.63
2019-01-03T06:37:30.616Z,103856.22
2019-01-03T06:38:32.316Z,103855.55
2019-01-03T06:39:32.858Z,103854.72
2019-01-03T06:40:33.446Z,103854.22
2019-01-03T06:41:34.171Z,103853.78
2019-01-03T06:42:34.827Z,103852.85
2019-01-03T06:43:35.387Z,103852.91
2019-01-03T06:44:36.043Z,103852.67
2019-01-03T06:45:36.580Z,103852.30
2019-01-03T06:46:37.142Z,103852.03
2019-01-03T06:47:37.814Z,103851.63
2019-01-03T06:48:38.404Z,103850.43
2019-01-03T06:49:38.982Z,103849.26
2019-01-03T06:50:39.451Z,103848.98
2019-01-03T06:51:40.175Z,103849.05
2019-01-03T06:52:40.858Z,103848.00
2019-01-03T06:53:41.347Z,103847.34
2019-01-03T06:54:42.206Z,103846.73
2019-01-03T06:55:42.754Z,103846.85
2019-01-03T06:56:42.216Z,103847.38
2019-01-03T06:57:43.770Z,103847.25
2019-01-03T06:58:44.324Z,103847.88
2019-01-03T06:59:44.877Z,103847.83
2019-01-03T07:00:45.506Z,103848.55
2019-01-03T07:01:46.255Z,103849.09
2019-01-03T07:01:56.299Z,103862.42
2019-01-03T07:02:56.830Z,103861.81
2019-01-03T07:03:57.450Z,103861.81
2019-01-03T07:04:58.013Z,103861.91
2019-01-03T07:05:58.522Z,103862.15
2019-01-03T07:06:59.213Z,103862.25
2019-01-03T07:07:59.968Z,103862.35
2019-01-03T07:09:00.049Z,103862.20
2019-01-03T07:10:00.738Z,103861.91
2019-01-03T07:11:01.279Z,103862.24
2019-01-03T07:12:01.886Z,103862.69
2019-01-03T07:13:02.385Z,103862.40
2019-01-03T07:14:01.903Z,103863.11
2019-01-03T07:15:03.465Z,103863.22
2019-01-03T07:16:04.036Z,103864.00
2019-01-03T07:17:04.036Z,103864.77
2019-01-03T07:18:04.750Z,103865.14
2019-01-03T07:19:05.518Z,103865.25
2019-01-03T07:20:06.384Z,103865.62
2019-01-03T07:21:06.869Z,103865.20
2019-01-03T07:22:07.753Z,103865.47
2019-01-03T07:23:08.568Z,103865.47
2019-01-03T07:24:09.053Z,103865.37
2019-01-03T07:25:09.646Z,103865.91
2019-01-03T07:26:10.190Z,103865.69
2019-01-03T07:27:10.928Z,103865.62
2019-01-03T07:28:11.560Z,103865.84
2019-01-03T07:29:12.238Z,103865.89
2019-01-03T07:30:12.823Z,103865.94
2019-01-03T07:31:13.359Z,103865.89
2019-01-03T07:32:13.910Z,103865.77
2019-01-03T07:33:14.578Z,103865.38
2019-01-03T07:34:15.009Z,103865.59
2019-01-03T07:35:15.630Z,103865.05
2019-01-03T07:36:16.151Z,103865.19
2019-01-03T07:37:16.874Z,103865.56
2019-01-03T07:38:17.505Z,103865.25
2019-01-03T07:39:18.408Z,103865.46
2019-01-03T07:40:19.063Z,103865.11
2019-01-03T07:41:19.639Z,103865.66
2019-01-03T07:42:19.243Z,103866.17
2019-01-03T07:43:20.798Z,103866.81
2019-01-03T07:44:21.259Z,103867.42
2019-01-03T07:45:21.938Z,103867.76
2019-01-03T07:46:22.364Z,103868.13
2019-01-03T07:46:31.451Z,103874.89
2019-01-03T07:47:31.982Z,103874.12
2019-01-03T07:48:32.495Z,103873.45
2019-01-03T07:49:32.995Z,103874.05
2019-01-03T07:50:33.617Z,103874.72
2019-01-03T07:51:34.117Z,103875.45
2019-01-03T07:52:34.706Z,103875.29
2019-01-03T07:53:35.208Z,103875.12
2019-01-03T07:54:35.682Z,103875.95
2019-01-03T07:55:36.264Z,103875.91
2019-01-03T07:56:36.749Z,103875.90
2019-01-03T07:57:36.642Z,103876.69
2019-01-03T07:58:38.157Z,103877.28
2019-01-03T07:59:38.875Z,103877.41
2019-01-03T08:00:39.516Z,103877.91
2019-01-03T08:01:39.045Z,103877.73
2019-01-03T08:02:40.680Z,103877.95
2019-01-03T08:03:41.205Z,103878.65
2019-01-03T08:04:41.691Z,103879.20
2019-01-03T08:05:42.280Z,103879.53
2019-01-03T08:06:43.131Z,103879.48
2019-01-03T08:07:43.579Z,103879.14
2019-01-03T08:08:44.038Z,103879.38
2019-01-03T08:09:44.617Z,103879.10
2019-01-03T08:10:45.245Z,103878.87
2019-01-03T08:11:45.725Z,103878.87
2019-01-03T08:12:46.298Z,103878.70
2019-01-03T08:13:46.869Z,103879.05
2019-01-03T08:14:47.776Z,103879.31
2019-01-03T08:15:48.422Z,103880.16
2019-01-03T08:16:49.335Z,103880.92
2019-01-03T08:17:49.416Z,103881.25
2019-01-03T08:18:49.877Z,103882.02
2019-01-03T08:19:50.865Z,103882.29
2019-01-03T08:20:51.479Z,103882.62
2019-01-03T08:21:52.157Z,103883.69
2019-01-03T08:22:52.739Z,103884.45
2019-01-03T08:23:53.481Z,103885.23
2019-01-03T08:24:53.983Z,103886.56
2019-01-03T08:25:54.826Z,103887.44
2019-01-03T08:26:55.433Z,103888.61
2019-01-03T08:27:56.259Z,103889.21
2019-01-03T08:28:56.734Z,103889.72
2019-01-03T08:29:57.143Z,103891.16
2019-01-03T08:30:57.567Z,103891.42
2019-01-03T08:31:07.608Z,103909.18
2019-01-03T08:32:08.509Z,103908.75
2019-01-03T08:33:08.025Z,103909.34
2019-01-03T08:34:09.581Z,103909.18
2019-01-03T08:35:10.402Z,103909.62
2019-01-03T08:36:10.906Z,103909.79
2019-01-03T08:37:11.657Z,103909.39
2019-01-03T08:38:12.506Z,103909.63
2019-01-03T08:39:13.075Z,103909.91
2019-01-03T08:40:13.962Z,103909.23
2019-01-03T08:41:14.636Z,103909.78
2019-01-03T08:42:15.223Z,103909.28
2019-01-03T08:43:15.904Z,103908.66
2019-01-03T08:44:16.248Z,103908.00
2019-01-03T08:45:17.093Z,103906.67
2019-01-03T08:46:17.751Z,103906.16
2019-01-03T08:47:18.196Z,103905.27
2019-01-03T08:48:18.769Z,103904.22
2019-01-03T08:49:19.414Z,103903.70
2019-01-03T08:50:19.856Z,103902.82
2019-01-03T08:51:20.440Z,103902.70
2019-01-03T08:52:20.945Z,103902.01
2019-01-03T08:53:21.931Z,103901.95
2019-01-03T08:54:22.886Z,103902.23
2019-01-03T08:55:23.323Z,103902.17
2019-01-03T08:56:24.010Z,103902.62
2019-01-03T08:57:24.693Z,103903.26
2019-01-03T08:58:24.302Z,103903.20
2019-01-03T08:59:25.922Z,103903.54
2019-01-03T09:00:26.374Z,103903.91
2019-01-03T09:01:26.882Z,103904.09
2019-01-03T09:02:26.959Z,103905.19
2019-01-03T09:03:27.489Z,103905.69
2019-01-03T09:04:28.454Z,103906.45
2019-01-03T09:05:29.007Z,103906.95
2019-01-03T09:06:29.132Z,103907.97
2019-01-03T09:07:32.229Z,103908.45
2019-01-03T09:08:29.419Z,103909.39
2019-01-03T09:09:31.306Z,103910.00
2019-01-03T09:10:32.126Z,103910.06
2019-01-03T09:11:31.093Z,103909.94
2019-01-03T09:12:32.822Z,103910.05
2019-01-03T09:13:33.500Z,103909.98
2019-01-03T09:14:34.043Z,103909.98
2019-01-03T09:15:34.571Z,103910.22
2019-01-03T09:16:35.296Z,103910.00
2019-01-03T09:16:43.623Z,103918.09
2019-01-03T09:17:44.366Z,103917.36
2019-01-03T09:18:44.920Z,103917.36
2019-01-03T09:19:45.764Z,103916.92
2019-01-03T09:20:46.229Z,103916.92
2019-01-03T09:21:48.020Z,103916.92
2019-01-03T09:22:47.833Z,103917.42
2019-01-03T09:23:48.549Z,103917.09
2019-01-03T09:24:49.024Z,103916.86
2019-01-03T09:25:49.855Z,103916.80
2019-01-03T09:26:50.458Z,103916.04
2019-01-03T09:27:51.172Z,103915.64
2019-01-03T09:28:51.722Z,103915.31
2019-01-03T09:29:52.179Z,103915.52
2019-01-03T09:30:52.597Z,103915.69
2019-01-03T09:31:53.192Z,103915.56
2019-01-03T09:32:54.155Z,103915.73
2019-01-03T09:33:54.754Z,103915.61
2019-01-03T09:34:55.388Z,103915.28
2019-01-03T09:35:55.847Z,103915.39
2019-01-03T09:36:56.420Z,103915.27
2019-01-03T09:37:56.701Z,103915.55
2019-01-03T09:38:57.239Z,103915.31
2019-01-03T09:39:57.890Z,103915.53
2019-01-03T09:40:59.429Z,103915.58
2019-01-03T09:41:58.153Z,103915.45
2019-01-03T09:42:59.634Z,103915.91
2019-01-03T09:44:00.174Z,103915.89
2019-01-03T09:45:00.824Z,103915.70
2019-01-03T09:46:01.371Z,103915.25
2019-01-03T09:47:02.089Z,103915.02
2019-01-03T09:48:02.915Z,103914.30
2019-01-03T09:49:02.997Z,103914.37
2019-01-03T09:50:03.510Z,103913.59
2019-01-03T09:51:03.972Z,103913.31
2019-01-03T09:52:04.774Z,103912.86
2019-01-03T09:53:04.088Z,103912.68
2019-01-03T09:54:05.687Z,103912.83
2019-01-03T09:55:06.168Z,103912.42
2019-01-03T09:56:07.082Z,103912.47
2019-01-03T09:57:08.019Z,103912.34
2019-01-03T09:58:08.590Z,103912.83
2019-01-03T09:59:09.230Z,103912.51
2019-01-03T10:00:10.042Z,103912.72
2019-01-03T10:01:10.846Z,103912.36
2019-01-03T10:02:11.492Z,103912.41
2019-01-03T10:02:19.787Z,103914.80
2019-01-03T10:03:21.276Z,103914.36
2019-01-03T10:04:21.795Z,103914.86
2019-01-03T10:05:22.315Z,103914.77
2019-01-03T10:06:22.773Z,103914.66
2019-01-03T10:07:23.293Z,103914.59
2019-01-03T10:08:23.886Z,103914.92
2019-01-03T10:09:24.600Z,103915.25
2019-01-03T10:10:25.231Z,103915.48
2019-01-03T10:11:25.719Z,103915.82
2019-01-03T10:12:26.224Z,103915.88
2019-01-03T10:13:26.844Z,103915.88
2019-01-03T10:14:27.314Z,103916.16
2019-01-03T10:15:27.797Z,103916.42
2019-01-03T10:16:28.447Z,103915.83
2019-01-03T10:17:29.000Z,103915.59
2019-01-03T10:18:29.631Z,103915.59
2019-01-03T10:19:30.020Z,103915.59
2019-01-03T10:20:30.661Z,103915.25
2019-01-03T10:21:31.102Z,103915.25
2019-01-03T10:22:34.765Z,103915.75
2019-01-03T10:23:32.330Z,103916.16
2019-01-03T10:24:31.995Z,103916.27
2019-01-03T10:25:33.401Z,103916.03
2019-01-03T10:26:34.246Z,103915.30
2019-01-03T10:27:34.832Z,103914.87
2019-01-03T10:28:35.265Z,103913.97
2019-01-03T10:29:35.791Z,103913.31
2019-01-03T10:30:36.234Z,103912.52
2019-01-03T10:31:36.725Z,103912.30
2019-01-03T10:32:37.224Z,103911.50
2019-01-03T10:33:37.260Z,103910.51
2019-01-03T10:34:37.736Z,103909.89
2019-01-03T10:35:38.248Z,103909.00
2019-01-03T10:36:39.014Z,103908.98
2019-01-03T10:37:39.488Z,103907.86
2019-01-03T10:38:39.951Z,103907.14
2019-01-03T10:39:39.460Z,103906.18
2019-01-03T10:40:41.342Z,103905.55
2019-01-03T10:41:42.035Z,103904.54
2019-01-03T10:42:42.563Z,103903.69
2019-01-03T10:43:43.122Z,103902.63
2019-01-03T10:44:43.693Z,103901.78
2019-01-03T10:45:44.289Z,103901.00
2019-01-03T10:46:44.986Z,103900.14
2019-01-03T10:47:45.564Z,103899.30
2019-01-03T10:47:57.626Z,103888.17
2019-01-03T10:48:58.248Z,103887.60
2019-01-03T10:49:58.764Z,103886.94
2019-01-03T10:50:59.347Z,103886.34
2019-01-03T10:51:59.914Z,103885.62
2019-01-03T10:53:00.522Z,103885.73
2019-01-03T10:54:01.187Z,103885.13
2019-01-03T10:55:01.737Z,103884.63
2019-01-03T10:56:01.332Z,103884.13
2019-01-03T10:57:02.914Z,103884.02
2019-01-03T10:58:04.508Z,103883.63
2019-01-03T10:59:04.130Z,103882.73
2019-01-03T11:00:04.805Z,103882.23
2019-01-03T11:01:05.501Z,103881.67
2019-01-03T11:02:06.364Z,103881.17
2019-01-03T11:03:07.082Z,103879.78
2019-01-03T11:04:07.916Z,103879.21
2019-01-03T11:05:08.467Z,103878.21
2019-01-03T11:06:09.181Z,103877.55
2019-01-03T11:07:09.722Z,103877.15
2019-01-03T11:08:10.477Z,103876.31
2019-01-03T11:09:11.308Z,103874.98
2019-01-03T11:10:11.846Z,103873.55
2019-01-03T11:11:12.390Z,103872.26
2019-01-03T11:12:13.106Z,103870.53
2019-01-03T11:13:13.983Z,103869.30
2019-01-03T11:14:14.613Z,103868.02
2019-01-03T11:15:15.283Z,103866.55
2019-01-03T11:16:16.400Z,103865.09
2019-01-03T11:17:15.643Z,103863.70
2019-01-03T11:18:17.360Z,103862.58
2019-01-03T11:19:18.159Z,103860.85
2019-01-03T11:20:18.441Z,103859.66